sensor_id;sensor_type;location;lat;lon;timestamp;temperature;humidity
6740;DHT22;3407;49.882;10.920;2024-01-30T00:03:57;-0.90;1.00
6740;DHT22;3407;49.882;10.920;2024-01-30T00:08:53;-0.90;1.00
6740;DHT22;3407;49.882;10.920;2024-01-30T00:13:48;-0.90;1.00
6740;DHT22;3407;49.882;10.920;2024-01-30T00:18:44;-0.80;1.00
6740;DHT22;3407;49.882;10.920;2024-01-30T00:23:39;-0.90;1.00
6740;DHT22;3407;49.882;10.920;2024-01-30T00:28:35;-1.00;1.00
6740;DHT22;3407;49.882;10.920;2024-01-30T00:33:30;-1.00;1.00
6740;DHT22;3407;49.882;10.920;2024-01-30T00:38:26;-1.00;1.00
6740;DHT22;3407;49.882;10.920;2024-01-30T00:43:21;-1.10;1.00
6740;DHT22;3407;49.882;10.920;2024-01-30T00:48:17;-1.00;1.00
6740;DHT22;3407;49.882;10.920;2024-01-30T00:53:12;-1.00;1.00
6740;DHT22;3407;49.882;10.920;2024-01-30T00:58:08;-0.90;1.00
6740;DHT22;3407;49.882;10.920;2024-01-30T01:03:04;-0.90;1.00
6740;DHT22;3407;49.882;10.920;2024-01-30T01:07:59;-1.10;1.00
6740;DHT22;3407;49.882;10.920;2024-01-30T01:12:55;-1.10;1.00
6740;DHT22;3407;49.882;10.920;2024-01-30T01:17:50;-1.00;1.00
6740;DHT22;3407;49.882;10.920;2024-01-30T01:22:46;-1.00;1.00
6740;DHT22;3407;49.882;10.920;2024-01-30T01:27:41;-0.90;1.00
6740;DHT22;3407;49.882;10.920;2024-01-30T01:32:38;-0.90;1.00
6740;DHT22;3407;49.882;10.920;2024-01-30T01:37:33;-1.00;1.00
6740;DHT22;3407;49.882;10.920;2024-01-30T01:42:29;-1.00;1.00
6740;DHT22;3407;49.882;10.920;2024-01-30T01:47:24;-1.00;1.00
6740;DHT22;3407;49.882;10.920;2024-01-30T01:52:20;-1.00;1.00
6740;DHT22;3407;49.882;10.920;2024-01-30T01:57:15;-1.20;1.00
6740;DHT22;3407;49.882;10.920;2024-01-30T02:02:11;-1.20;1.00
6740;DHT22;3407;49.882;10.920;2024-01-30T02:07:08;-1.30;1.00
6740;DHT22;3407;49.882;10.920;2024-01-30T02:12:03;-1.30;1.00
6740;DHT22;3407;49.882;10.920;2024-01-30T02:16:59;-1.40;1.00
6740;DHT22;3407;49.882;10.920;2024-01-30T02:21:54;-1.40;1.00
6740;DHT22;3407;49.882;10.920;2024-01-30T02:26:50;-1.40;1.00
6740;DHT22;3407;49.882;10.920;2024-01-30T02:31:45;-1.40;1.00
6740;DHT22;3407;49.882;10.920;2024-01-30T02:36:44;-1.40;1.00
6740;DHT22;3407;49.882;10.920;2024-01-30T02:41:39;-1.40;1.00
6740;DHT22;3407;49.882;10.920;2024-01-30T02:46:35;-1.40;1.00
6740;DHT22;3407;49.882;10.920;2024-01-30T02:51:30;-1.40;1.00
6740;DHT22;3407;49.882;10.920;2024-01-30T02:56:26;-1.40;1.00
6740;DHT22;3407;49.882;10.920;2024-01-30T03:01:21;-1.60;1.00
6740;DHT22;3407;49.882;10.920;2024-01-30T03:06:17;-1.60;1.00
6740;DHT22;3407;49.882;10.920;2024-01-30T03:11:15;-1.60;1.00
6740;DHT22;3407;49.882;10.920;2024-01-30T03:16:10;-1.60;1.00
6740;DHT22;3407;49.882;10.920;2024-01-30T03:21:06;-1.70;1.00
6740;DHT22;3407;49.882;10.920;2024-01-30T03:26:01;-1.60;1.00
6740;DHT22;3407;49.882;10.920;2024-01-30T03:30:59;-1.60;1.00
6740;DHT22;3407;49.882;10.920;2024-01-30T03:35:54;-1.60;1.00
6740;DHT22;3407;49.882;10.920;2024-01-30T03:40:50;-1.70;1.00
6740;DHT22;3407;49.882;10.920;2024-01-30T03:45:45;-1.80;1.00
6740;DHT22;3407;49.882;10.920;2024-01-30T03:50:41;-1.80;1.00
6740;DHT22;3407;49.882;10.920;2024-01-30T03:55:36;-1.80;1.00
6740;DHT22;3407;49.882;10.920;2024-01-30T04:00:32;-1.80;1.00
6740;DHT22;3407;49.882;10.920;2024-01-30T04:05:27;-1.80;1.00
6740;DHT22;3407;49.882;10.920;2024-01-30T04:10:23;-1.80;1.00
6740;DHT22;3407;49.882;10.920;2024-01-30T04:15:20;-1.80;1.00
6740;DHT22;3407;49.882;10.920;2024-01-30T04:20:16;-1.80;1.00
6740;DHT22;3407;49.882;10.920;2024-01-30T04:25:14;-1.80;1.00
6740;DHT22;3407;49.882;10.920;2024-01-30T04:30:10;-1.90;1.00
6740;DHT22;3407;49.882;10.920;2024-01-30T04:35:06;-1.80;1.00
6740;DHT22;3407;49.882;10.920;2024-01-30T04:40:01;-1.80;1.00
6740;DHT22;3407;49.882;10.920;2024-01-30T04:44:58;-1.80;1.00
6740;DHT22;3407;49.882;10.920;2024-01-30T04:49:53;-1.80;1.00
6740;DHT22;3407;49.882;10.920;2024-01-30T04:54:49;-1.90;1.00
6740;DHT22;3407;49.882;10.920;2024-01-30T04:59:44;-1.90;1.00
6740;DHT22;3407;49.882;10.920;2024-01-30T05:04:41;-1.90;1.00
6740;DHT22;3407;49.882;10.920;2024-01-30T05:09:37;-1.90;1.00
6740;DHT22;3407;49.882;10.920;2024-01-30T05:14:32;-1.90;1.00
6740;DHT22;3407;49.882;10.920;2024-01-30T05:19:28;-1.90;1.00
6740;DHT22;3407;49.882;10.920;2024-01-30T05:24:23;-1.80;1.00
6740;DHT22;3407;49.882;10.920;2024-01-30T05:29:19;-1.60;1.00
6740;DHT22;3407;49.882;10.920;2024-01-30T05:34:14;-1.60;1.00
6740;DHT22;3407;49.882;10.920;2024-01-30T05:39:10;-1.50;1.00
6740;DHT22;3407;49.882;10.920;2024-01-30T05:44:05;-1.50;1.00
6740;DHT22;3407;49.882;10.920;2024-01-30T05:49:01;-1.60;1.00
6740;DHT22;3407;49.882;10.920;2024-01-30T05:53:57;-1.50;1.00
6740;DHT22;3407;49.882;10.920;2024-01-30T05:58:52;-1.40;1.00
6740;DHT22;3407;49.882;10.920;2024-01-30T06:03:48;-1.30;1.00
6740;DHT22;3407;49.882;10.920;2024-01-30T06:08:43;-1.20;1.00
6740;DHT22;3407;49.882;10.920;2024-01-30T06:13:39;-1.10;1.00
6740;DHT22;3407;49.882;10.920;2024-01-30T06:18:34;-1.00;1.00
6740;DHT22;3407;49.882;10.920;2024-01-30T06:23:30;-1.00;1.00
6740;DHT22;3407;49.882;10.920;2024-01-30T06:28:25;-0.90;1.00
6740;DHT22;3407;49.882;10.920;2024-01-30T06:33:21;-0.90;1.00
6740;DHT22;3407;49.882;10.920;2024-01-30T06:38:16;-0.80;1.00
6740;DHT22;3407;49.882;10.920;2024-01-30T06:43:12;-0.80;1.00
6740;DHT22;3407;49.882;10.920;2024-01-30T06:48:08;-0.60;1.00
6740;DHT22;3407;49.882;10.920;2024-01-30T06:53:04;-0.40;1.00
6740;DHT22;3407;49.882;10.920;2024-01-30T06:57:59;-0.20;1.00
6740;DHT22;3407;49.882;10.920;2024-01-30T07:02:55;-0.20;1.00
6740;DHT22;3407;49.882;10.920;2024-01-30T07:07:50;-0.10;1.00
6740;DHT22;3407;49.882;10.920;2024-01-30T07:12:46;-0.10;1.00
6740;DHT22;3407;49.882;10.920;2024-01-30T07:17:41;0.00;1.00
6740;DHT22;3407;49.882;10.920;2024-01-30T07:22:37;0.00;1.00
6740;DHT22;3407;49.882;10.920;2024-01-30T07:27:32;0.10;1.00
6740;DHT22;3407;49.882;10.920;2024-01-30T07:32:28;0.20;1.00
6740;DHT22;3407;49.882;10.920;2024-01-30T07:37:23;0.30;1.00
6740;DHT22;3407;49.882;10.920;2024-01-30T07:42:19;0.50;99.90
6740;DHT22;3407;49.882;10.920;2024-01-30T07:47:15;0.70;99.90
6740;DHT22;3407;49.882;10.920;2024-01-30T07:52:10;0.90;99.90
6740;DHT22;3407;49.882;10.920;2024-01-30T07:57:06;1.00;99.90
6740;DHT22;3407;49.882;10.920;2024-01-30T08:02:01;1.20;99.90
6740;DHT22;3407;49.882;10.920;2024-01-30T08:06:57;1.50;65.00
6740;DHT22;3407;49.882;10.920;2024-01-30T08:11:53;1.80;99.90
6740;DHT22;3407;49.882;10.920;2024-01-30T08:16:48;2.10;1.00
6740;DHT22;3407;49.882;10.920;2024-01-30T08:21:44;2.40;1.00
6740;DHT22;3407;49.882;10.920;2024-01-30T08:26:39;2.60;1.00
6740;DHT22;3407;49.882;10.920;2024-01-30T08:31:35;2.80;1.00
6740;DHT22;3407;49.882;10.920;2024-01-30T08:36:30;3.00;10.60
6740;DHT22;3407;49.882;10.920;2024-01-30T08:41:26;3.20;1.00
6740;DHT22;3407;49.882;10.920;2024-01-30T08:46:21;3.40;1.00
6740;DHT22;3407;49.882;10.920;2024-01-30T08:51:17;3.60;99.90
6740;DHT22;3407;49.882;10.920;2024-01-30T08:56:12;3.80;1.00
6740;DHT22;3407;49.882;10.920;2024-01-30T09:01:08;4.00;99.90
6740;DHT22;3407;49.882;10.920;2024-01-30T09:06:08;4.00;44.40
6740;DHT22;3407;49.882;10.920;2024-01-30T09:11:12;4.10;1.00
6740;DHT22;3407;49.882;10.920;2024-01-30T09:16:08;4.10;1.00
6740;DHT22;3407;49.882;10.920;2024-01-30T09:21:04;4.10;1.00
6740;DHT22;3407;49.882;10.920;2024-01-30T09:26:00;4.20;1.00
6740;DHT22;3407;49.882;10.920;2024-01-30T09:30:55;4.20;1.00
6740;DHT22;3407;49.882;10.920;2024-01-30T09:35:51;4.20;1.00
6740;DHT22;3407;49.882;10.920;2024-01-30T09:40:53;4.30;99.90
6740;DHT22;3407;49.882;10.920;2024-01-30T09:45:50;4.60;99.90
6740;DHT22;3407;49.882;10.920;2024-01-30T09:50:46;4.80;99.90
6740;DHT22;3407;49.882;10.920;2024-01-30T09:55:43;4.90;1.00
6740;DHT22;3407;49.882;10.920;2024-01-30T10:00:38;5.00;1.00
6740;DHT22;3407;49.882;10.920;2024-01-30T10:05:35;5.10;1.00
6740;DHT22;3407;49.882;10.920;2024-01-30T10:10:32;5.10;1.00
6740;DHT22;3407;49.882;10.920;2024-01-30T10:15:28;5.20;1.00
6740;DHT22;3407;49.882;10.920;2024-01-30T10:20:25;5.50;1.00
6740;DHT22;3407;49.882;10.920;2024-01-30T10:25:21;5.90;1.00
6740;DHT22;3407;49.882;10.920;2024-01-30T10:30:17;6.40;99.90
6740;DHT22;3407;49.882;10.920;2024-01-30T10:35:14;6.80;1.00
6740;DHT22;3407;49.882;10.920;2024-01-30T10:40:13;7.00;1.00
6740;DHT22;3407;49.882;10.920;2024-01-30T10:45:11;7.10;1.00
6740;DHT22;3407;49.882;10.920;2024-01-30T10:50:08;7.20;1.00
6740;DHT22;3407;49.882;10.920;2024-01-30T10:55:06;7.40;1.00
6740;DHT22;3407;49.882;10.920;2024-01-30T11:00:04;7.70;99.90
6740;DHT22;3407;49.882;10.920;2024-01-30T11:05:07;7.70;99.90
6740;DHT22;3407;49.882;10.920;2024-01-30T11:10:04;7.70;99.90
6740;DHT22;3407;49.882;10.920;2024-01-30T11:15:14;7.60;99.90
6740;DHT22;3407;49.882;10.920;2024-01-30T11:20:11;7.70;99.90
6740;DHT22;3407;49.882;10.920;2024-01-30T11:25:11;7.70;99.90
6740;DHT22;3407;49.882;10.920;2024-01-30T11:30:07;7.60;99.90
6740;DHT22;3407;49.882;10.920;2024-01-30T11:35:04;7.70;99.90
6740;DHT22;3407;49.882;10.920;2024-01-30T11:40:02;8.00;99.90
6740;DHT22;3407;49.882;10.920;2024-01-30T11:45:02;8.20;99.90
6740;DHT22;3407;49.882;10.920;2024-01-30T11:49:58;8.30;99.90
6740;DHT22;3407;49.882;10.920;2024-01-30T11:54:54;8.60;99.90
6740;DHT22;3407;49.882;10.920;2024-01-30T11:59:49;8.80;99.90
6740;DHT22;3407;49.882;10.920;2024-01-30T12:04:45;8.90;99.90
6740;DHT22;3407;49.882;10.920;2024-01-30T12:09:41;9.20;99.90
6740;DHT22;3407;49.882;10.920;2024-01-30T12:14:38;9.20;99.90
6740;DHT22;3407;49.882;10.920;2024-01-30T12:19:34;9.00;99.90
6740;DHT22;3407;49.882;10.920;2024-01-30T12:24:30;9.00;99.90
6740;DHT22;3407;49.882;10.920;2024-01-30T12:29:25;9.10;99.90
6740;DHT22;3407;49.882;10.920;2024-01-30T12:34:21;9.40;99.90
6740;DHT22;3407;49.882;10.920;2024-01-30T12:39:17;9.30;99.90
6740;DHT22;3407;49.882;10.920;2024-01-30T12:44:13;9.40;99.90
6740;DHT22;3407;49.882;10.920;2024-01-30T12:49:09;9.60;99.90
6740;DHT22;3407;49.882;10.920;2024-01-30T12:54:06;9.50;99.90
6740;DHT22;3407;49.882;10.920;2024-01-30T12:59:01;9.70;99.90
6740;DHT22;3407;49.882;10.920;2024-01-30T13:03:57;9.80;99.90
6740;DHT22;3407;49.882;10.920;2024-01-30T13:08:54;9.80;99.90
6740;DHT22;3407;49.882;10.920;2024-01-30T13:13:49;9.50;99.90
6740;DHT22;3407;49.882;10.920;2024-01-30T13:18:44;9.30;99.90
6740;DHT22;3407;49.882;10.920;2024-01-30T13:23:40;9.00;99.90
6740;DHT22;3407;49.882;10.920;2024-01-30T13:28:36;8.90;99.90
6740;DHT22;3407;49.882;10.920;2024-01-30T13:33:31;9.10;99.90
6740;DHT22;3407;49.882;10.920;2024-01-30T13:38:27;9.20;99.90
6740;DHT22;3407;49.882;10.920;2024-01-30T13:43:22;9.00;99.90
6740;DHT22;3407;49.882;10.920;2024-01-30T13:48:18;9.00;99.90
6740;DHT22;3407;49.882;10.920;2024-01-30T13:53:14;9.00;99.90
6740;DHT22;3407;49.882;10.920;2024-01-30T13:58:09;9.10;99.90
6740;DHT22;3407;49.882;10.920;2024-01-30T14:03:05;9.10;99.90
6740;DHT22;3407;49.882;10.920;2024-01-30T14:08:01;9.00;99.90
6740;DHT22;3407;49.882;10.920;2024-01-30T14:12:56;9.10;99.90
6740;DHT22;3407;49.882;10.920;2024-01-30T14:17:52;9.10;99.90
6740;DHT22;3407;49.882;10.920;2024-01-30T14:22:48;9.00;99.90
6740;DHT22;3407;49.882;10.920;2024-01-30T14:27:43;8.90;99.90
6740;DHT22;3407;49.882;10.920;2024-01-30T14:32:39;8.80;99.90
6740;DHT22;3407;49.882;10.920;2024-01-30T14:37:35;8.60;99.90
6740;DHT22;3407;49.882;10.920;2024-01-30T14:42:31;8.40;99.90
6740;DHT22;3407;49.882;10.920;2024-01-30T14:47:27;8.20;99.90
6740;DHT22;3407;49.882;10.920;2024-01-30T14:52:23;8.10;99.90
6740;DHT22;3407;49.882;10.920;2024-01-30T14:57:19;8.10;99.90
6740;DHT22;3407;49.882;10.920;2024-01-30T15:02:14;8.00;99.90
6740;DHT22;3407;49.882;10.920;2024-01-30T15:07:10;7.90;99.90
6740;DHT22;3407;49.882;10.920;2024-01-30T15:12:06;7.90;99.90
6740;DHT22;3407;49.882;10.920;2024-01-30T15:17:01;7.80;99.90
6740;DHT22;3407;49.882;10.920;2024-01-30T15:21:57;7.70;99.90
6740;DHT22;3407;49.882;10.920;2024-01-30T15:26:52;7.60;99.90
6740;DHT22;3407;49.882;10.920;2024-01-30T15:31:48;7.50;99.90
6740;DHT22;3407;49.882;10.920;2024-01-30T15:36:44;7.50;99.90
6740;DHT22;3407;49.882;10.920;2024-01-30T15:41:39;7.50;99.90
6740;DHT22;3407;49.882;10.920;2024-01-30T15:46:35;7.40;99.90
6740;DHT22;3407;49.882;10.920;2024-01-30T15:51:30;7.10;99.90
6740;DHT22;3407;49.882;10.920;2024-01-30T15:56:26;6.90;1.00
6740;DHT22;3407;49.882;10.920;2024-01-30T16:01:22;6.80;1.00
6740;DHT22;3407;49.882;10.920;2024-01-30T16:06:17;6.50;1.00
6740;DHT22;3407;49.882;10.920;2024-01-30T16:11:16;6.40;1.00
6740;DHT22;3407;49.882;10.920;2024-01-30T16:16:12;6.20;1.00
6740;DHT22;3407;49.882;10.920;2024-01-30T16:21:08;6.00;23.40
6740;DHT22;3407;49.882;10.920;2024-01-30T16:26:04;5.90;99.90
6740;DHT22;3407;49.882;10.920;2024-01-30T16:30:59;5.90;99.90
6740;DHT22;3407;49.882;10.920;2024-01-30T16:35:57;5.80;99.90
6740;DHT22;3407;49.882;10.920;2024-01-30T16:40:53;5.70;1.00
6740;DHT22;3407;49.882;10.920;2024-01-30T16:45:48;5.50;1.00
6740;DHT22;3407;49.882;10.920;2024-01-30T16:50:44;5.40;1.00
6740;DHT22;3407;49.882;10.920;2024-01-30T16:55:39;5.20;99.90
6740;DHT22;3407;49.882;10.920;2024-01-30T17:00:35;5.10;99.90
6740;DHT22;3407;49.882;10.920;2024-01-30T17:05:31;4.90;1.00
6740;DHT22;3407;49.882;10.920;2024-01-30T17:10:27;4.80;99.90
6740;DHT22;3407;49.882;10.920;2024-01-30T17:15:22;4.70;1.00
6740;DHT22;3407;49.882;10.920;2024-01-30T17:20:17;4.70;99.90
6740;DHT22;3407;49.882;10.920;2024-01-30T17:25:13;4.60;70.40
6740;DHT22;3407;49.882;10.920;2024-01-30T17:30:12;4.60;1.00
6740;DHT22;3407;49.882;10.920;2024-01-30T17:35:08;4.50;1.00
6740;DHT22;3407;49.882;10.920;2024-01-30T17:40:04;4.40;1.00
6740;DHT22;3407;49.882;10.920;2024-01-30T17:45:00;4.40;99.90
6740;DHT22;3407;49.882;10.920;2024-01-30T17:49:57;4.50;99.90
6740;DHT22;3407;49.882;10.920;2024-01-30T17:54:52;4.40;1.00
6740;DHT22;3407;49.882;10.920;2024-01-30T17:59:48;4.50;99.90
6740;DHT22;3407;49.882;10.920;2024-01-30T18:04:44;4.40;99.90
6740;DHT22;3407;49.882;10.920;2024-01-30T18:09:40;4.30;99.90
6740;DHT22;3407;49.882;10.920;2024-01-30T18:14:36;4.30;1.00
6740;DHT22;3407;49.882;10.920;2024-01-30T18:19:31;4.30;99.90
6740;DHT22;3407;49.882;10.920;2024-01-30T18:24:27;4.30;1.00
6740;DHT22;3407;49.882;10.920;2024-01-30T18:29:23;4.30;1.00
6740;DHT22;3407;49.882;10.920;2024-01-30T18:34:18;4.30;99.90
6740;DHT22;3407;49.882;10.920;2024-01-30T18:39:14;4.30;99.90
6740;DHT22;3407;49.882;10.920;2024-01-30T18:44:09;4.30;99.90
6740;DHT22;3407;49.882;10.920;2024-01-30T18:49:05;4.30;1.00
6740;DHT22;3407;49.882;10.920;2024-01-30T18:54:00;4.40;95.80
6740;DHT22;3407;49.882;10.920;2024-01-30T18:58:56;4.40;99.90
6740;DHT22;3407;49.882;10.920;2024-01-30T19:03:51;4.50;1.00
6740;DHT22;3407;49.882;10.920;2024-01-30T19:08:47;4.60;99.90
6740;DHT22;3407;49.882;10.920;2024-01-30T19:13:42;4.60;1.00
6740;DHT22;3407;49.882;10.920;2024-01-30T19:18:38;4.70;99.90
6740;DHT22;3407;49.882;10.920;2024-01-30T19:23:34;4.70;1.00
6740;DHT22;3407;49.882;10.920;2024-01-30T19:28:29;4.70;99.90
6740;DHT22;3407;49.882;10.920;2024-01-30T19:33:25;4.80;1.00
6740;DHT22;3407;49.882;10.920;2024-01-30T19:38:20;4.80;1.00
6740;DHT22;3407;49.882;10.920;2024-01-30T19:43:16;4.90;1.00
6740;DHT22;3407;49.882;10.920;2024-01-30T19:48:11;4.90;1.00
6740;DHT22;3407;49.882;10.920;2024-01-30T19:53:07;4.80;1.00
6740;DHT22;3407;49.882;10.920;2024-01-30T19:58:02;4.80;99.90
6740;DHT22;3407;49.882;10.920;2024-01-30T20:02:59;4.70;99.90
6740;DHT22;3407;49.882;10.920;2024-01-30T20:07:55;4.70;1.00
6740;DHT22;3407;49.882;10.920;2024-01-30T20:12:51;4.60;1.00
6740;DHT22;3407;49.882;10.920;2024-01-30T20:17:46;4.60;1.00
6740;DHT22;3407;49.882;10.920;2024-01-30T20:22:44;4.70;99.90
6740;DHT22;3407;49.882;10.920;2024-01-30T20:27:39;4.70;99.90
6740;DHT22;3407;49.882;10.920;2024-01-30T20:32:35;4.70;99.90
6740;DHT22;3407;49.882;10.920;2024-01-30T20:37:30;4.80;99.90
6740;DHT22;3407;49.882;10.920;2024-01-30T20:42:26;4.80;99.90
6740;DHT22;3407;49.882;10.920;2024-01-30T20:47:21;4.80;99.90
6740;DHT22;3407;49.882;10.920;2024-01-30T20:52:17;4.70;1.00
6740;DHT22;3407;49.882;10.920;2024-01-30T20:57:13;4.80;66.80
6740;DHT22;3407;49.882;10.920;2024-01-30T21:02:08;4.70;99.90
6740;DHT22;3407;49.882;10.920;2024-01-30T21:07:04;4.70;99.90
6740;DHT22;3407;49.882;10.920;2024-01-30T21:11:59;4.70;1.00
6740;DHT22;3407;49.882;10.920;2024-01-30T21:16:55;4.80;1.00
6740;DHT22;3407;49.882;10.920;2024-01-30T21:21:51;4.80;1.00
6740;DHT22;3407;49.882;10.920;2024-01-30T21:26:47;4.90;1.00
6740;DHT22;3407;49.882;10.920;2024-01-30T21:31:45;4.90;1.00
6740;DHT22;3407;49.882;10.920;2024-01-30T21:36:41;4.90;1.00
6740;DHT22;3407;49.882;10.920;2024-01-30T21:41:37;4.90;1.00
6740;DHT22;3407;49.882;10.920;2024-01-30T21:46:32;5.00;1.00
6740;DHT22;3407;49.882;10.920;2024-01-30T21:51:28;5.00;1.00
6740;DHT22;3407;49.882;10.920;2024-01-30T21:56:23;5.00;1.00
6740;DHT22;3407;49.882;10.920;2024-01-30T22:01:19;5.00;1.00
6740;DHT22;3407;49.882;10.920;2024-01-30T22:06:15;4.90;1.00
6740;DHT22;3407;49.882;10.920;2024-01-30T22:11:10;4.90;1.00
6740;DHT22;3407;49.882;10.920;2024-01-30T22:16:06;4.90;1.00
6740;DHT22;3407;49.882;10.920;2024-01-30T22:21:01;4.90;1.00
6740;DHT22;3407;49.882;10.920;2024-01-30T22:26:02;4.90;1.00
6740;DHT22;3407;49.882;10.920;2024-01-30T22:30:58;4.90;1.00
6740;DHT22;3407;49.882;10.920;2024-01-30T22:35:53;4.90;1.00
6740;DHT22;3407;49.882;10.920;2024-01-30T22:40:49;5.00;1.00
6740;DHT22;3407;49.882;10.920;2024-01-30T22:45:44;5.00;1.00
6740;DHT22;3407;49.882;10.920;2024-01-30T22:50:40;5.00;1.00
6740;DHT22;3407;49.882;10.920;2024-01-30T22:55:36;5.10;1.00
6740;DHT22;3407;49.882;10.920;2024-01-30T23:00:31;5.10;1.00
6740;DHT22;3407;49.882;10.920;2024-01-30T23:05:27;5.10;1.00
6740;DHT22;3407;49.882;10.920;2024-01-30T23:10:22;5.10;1.00
6740;DHT22;3407;49.882;10.920;2024-01-30T23:15:18;5.10;1.00
6740;DHT22;3407;49.882;10.920;2024-01-30T23:20:13;5.10;1.00
6740;DHT22;3407;49.882;10.920;2024-01-30T23:25:09;5.10;1.00
6740;DHT22;3407;49.882;10.920;2024-01-30T23:30:05;5.10;1.00
6740;DHT22;3407;49.882;10.920;2024-01-30T23:35:00;5.20;1.00
6740;DHT22;3407;49.882;10.920;2024-01-30T23:39:56;5.20;1.00
6740;DHT22;3407;49.882;10.920;2024-01-30T23:44:51;5.20;1.00
6740;DHT22;3407;49.882;10.920;2024-01-30T23:49:48;5.20;1.00
6740;DHT22;3407;49.882;10.920;2024-01-30T23:54:44;5.20;1.00
6740;DHT22;3407;49.882;10.920;2024-01-30T23:59:39;5.20;1.00
